createdAt,value
2023-05-01T00:00:22.204Z,8.70
2023-05-01T00:02:50.316Z,8.70
2023-05-01T00:05:18.494Z,8.60
2023-05-01T00:07:46.714Z,8.60
2023-05-01T00:10:14.757Z,8.60
2023-05-01T00:12:44.115Z,8.50
2023-05-01T00:15:12.530Z,8.50
2023-05-01T00:17:42.627Z,8.40
2023-05-01T00:20:11.981Z,8.40
2023-05-01T00:22:39.952Z,8.30
2023-05-01T00:25:08.664Z,8.20
2023-05-01T00:27:36.629Z,8.20
2023-05-01T00:30:07.454Z,8.20
2023-05-01T00:32:35.632Z,8.10
2023-05-01T00:35:03.735Z,8.10
2023-05-01T00:37:32.279Z,8.00
2023-05-01T00:40:00.280Z,8.00
2023-05-01T00:42:28.286Z,7.90
2023-05-01T00:44:56.360Z,7.90
2023-05-01T00:47:26.314Z,7.90
2023-05-01T00:49:55.358Z,7.80
2023-05-01T00:52:25.119Z,7.80
2023-05-01T00:54:53.560Z,7.80
2023-05-01T00:57:22.473Z,7.80
2023-05-01T00:59:50.722Z,7.70
2023-05-01T01:02:18.777Z,7.70
2023-05-01T01:04:49.512Z,7.70
2023-05-01T01:07:25.026Z,7.60
2023-05-01T01:10:06.451Z,7.60
2023-05-01T01:12:41.542Z,7.60
2023-05-01T01:15:21.206Z,7.60
2023-05-01T01:17:56.481Z,7.50
2023-05-01T01:20:33.413Z,7.50
2023-05-01T01:23:34.825Z,7.40
2023-05-01T01:26:34.546Z,7.40
2023-05-01T01:29:32.222Z,7.40
2023-05-01T01:32:11.378Z,7.30
2023-05-01T01:34:46.661Z,7.30
2023-05-01T01:37:19.115Z,7.20
2023-05-01T01:39:53.575Z,7.20
2023-05-01T01:42:27.505Z,7.20
2023-05-01T01:44:57.527Z,7.10
2023-05-01T01:47:29.251Z,7.10
2023-05-01T01:50:02.084Z,7.10
2023-05-01T01:52:31.294Z,7.10
2023-05-01T01:55:05.208Z,7.00
2023-05-01T01:57:35.782Z,7.00
2023-05-01T02:00:08.840Z,6.90
2023-05-01T02:02:39.038Z,6.90
2023-05-01T02:05:10.555Z,6.80
2023-05-01T02:07:41.248Z,6.80
2023-05-01T02:10:12.284Z,6.70
2023-05-01T02:12:41.188Z,6.70
2023-05-01T02:15:11.612Z,6.70
2023-05-01T02:17:42.028Z,6.70
2023-05-01T02:20:13.718Z,6.60
2023-05-01T02:22:42.558Z,6.60
2023-05-01T02:25:13.434Z,6.60
2023-05-01T02:27:48.268Z,6.60
2023-05-01T02:30:17.026Z,6.60
2023-05-01T02:32:45.292Z,6.60
2023-05-01T02:35:14.705Z,6.50
2023-05-01T02:37:42.830Z,6.50
2023-05-01T02:40:14.939Z,6.50
2023-05-01T02:42:44.431Z,6.40
2023-05-01T02:45:20.797Z,6.40
2023-05-01T02:47:52.841Z,6.40
2023-05-01T02:50:23.232Z,6.30
2023-05-01T02:52:52.154Z,6.30
2023-05-01T02:55:20.600Z,6.30
2023-05-01T02:57:48.904Z,6.20
2023-05-01T03:00:16.992Z,6.20
2023-05-01T03:02:45.419Z,6.20
2023-05-01T03:05:13.705Z,6.20
2023-05-01T03:07:43.069Z,6.20
2023-05-01T03:10:12.003Z,6.20
2023-05-01T03:12:40.040Z,6.10
2023-05-01T03:15:09.319Z,6.10
2023-05-01T03:17:37.375Z,6.10
2023-05-01T03:20:07.542Z,6.10
2023-05-01T03:22:35.992Z,6.00
2023-05-01T03:25:05.760Z,6.00
2023-05-01T03:27:33.730Z,6.00
2023-05-01T03:30:01.788Z,6.00
2023-05-01T03:32:30.214Z,6.00
2023-05-01T03:34:58.436Z,6.00
2023-05-01T03:37:26.992Z,5.90
2023-05-01T03:39:55.187Z,5.90
2023-05-01T03:42:24.705Z,5.90
2023-05-01T03:44:52.682Z,5.90
2023-05-01T03:47:20.652Z,5.80
2023-05-01T03:49:48.641Z,5.80
2023-05-01T03:52:16.617Z,5.80
2023-05-01T03:54:44.958Z,5.80
2023-05-01T03:57:14.617Z,5.80
2023-05-01T03:59:44.847Z,5.80
2023-05-01T04:02:12.936Z,5.90
2023-05-01T04:04:41.112Z,5.90
2023-05-01T04:07:09.328Z,5.90
2023-05-01T04:09:37.370Z,5.90
2023-05-01T04:12:05.805Z,5.90
2023-05-01T04:14:36.646Z,6.00
2023-05-01T04:17:06.447Z,5.90
2023-05-01T04:19:35.238Z,6.00
2023-05-01T04:22:03.738Z,6.00
2023-05-01T04:24:31.734Z,6.00
2023-05-01T04:26:59.702Z,6.10
2023-05-01T04:29:27.694Z,6.10
2023-05-01T04:31:56.335Z,6.20
2023-05-01T04:34:29.222Z,6.20
2023-05-01T04:36:57.611Z,6.30
2023-05-01T04:39:25.650Z,6.30
2023-05-01T04:41:53.601Z,6.30
2023-05-01T04:44:21.708Z,6.40
2023-05-01T04:46:49.872Z,6.50
2023-05-01T04:49:17.892Z,6.60
2023-05-01T04:51:47.258Z,6.60
2023-05-01T04:54:15.249Z,6.80
2023-05-01T04:56:43.226Z,7.00
2023-05-01T04:59:11.197Z,7.20
2023-05-01T05:01:39.264Z,7.40
2023-05-01T05:04:07.809Z,7.70
2023-05-01T05:06:36.281Z,7.90
2023-05-01T05:09:05.762Z,8.10
2023-05-01T05:11:33.726Z,8.30
2023-05-01T05:14:01.775Z,8.60
2023-05-01T05:16:29.763Z,8.80
2023-05-01T05:18:58.446Z,9.10
2023-05-01T05:21:26.438Z,9.40
2023-05-01T05:23:54.463Z,9.70
2023-05-01T05:26:24.909Z,10.00
2023-05-01T05:28:52.885Z,10.30
2023-05-01T05:31:20.945Z,10.60
2023-05-01T05:33:48.993Z,10.90
2023-05-01T05:36:17.237Z,11.20
2023-05-01T05:38:45.252Z,11.40
2023-05-01T05:41:13.272Z,11.70
2023-05-01T05:43:42.610Z,12.10
2023-05-01T05:46:11.519Z,12.40
2023-05-01T05:48:39.645Z,12.70
2023-05-01T05:51:07.661Z,13.00
2023-05-01T05:53:35.643Z,13.30
2023-05-01T05:56:03.646Z,13.50
2023-05-01T05:58:31.741Z,13.70
2023-05-01T06:01:01.080Z,14.10
2023-05-01T06:03:29.355Z,14.40
2023-05-01T06:06:00.346Z,14.50
2023-05-01T06:08:28.748Z,14.60
2023-05-01T06:10:58.871Z,14.60
2023-05-01T06:13:29.757Z,14.60
2023-05-01T06:15:57.903Z,14.60
2023-05-01T06:18:30.147Z,14.80
2023-05-01T06:20:58.315Z,14.70
2023-05-01T06:23:26.435Z,14.70
2023-05-01T06:25:54.684Z,14.80
2023-05-01T06:28:22.699Z,14.90
2023-05-01T06:30:50.673Z,14.90
2023-05-01T06:33:18.699Z,15.30
2023-05-01T06:35:51.037Z,15.50
2023-05-01T06:38:19.045Z,15.70
2023-05-01T06:40:47.506Z,15.70
2023-05-01T06:43:15.610Z,15.60
2023-05-01T06:45:43.616Z,16.00
2023-05-01T06:48:11.640Z,16.40
2023-05-01T06:50:39.724Z,16.50
2023-05-01T06:53:09.101Z,16.50
2023-05-01T06:55:37.198Z,16.50
2023-05-01T06:58:16.020Z,16.70
2023-05-01T07:00:51.494Z,16.60
2023-05-01T07:03:19.619Z,16.60
2023-05-01T07:05:47.680Z,16.50
2023-05-01T07:08:17.047Z,16.60
2023-05-01T07:10:47.359Z,17.10
2023-05-01T07:13:15.919Z,17.10
2023-05-01T07:15:43.906Z,17.30
2023-05-01T07:18:12.758Z,17.20
2023-05-01T07:20:40.891Z,17.30
2023-05-01T07:23:09.763Z,17.20
2023-05-01T07:25:41.298Z,17.50
2023-05-01T07:28:09.306Z,17.30
2023-05-01T07:30:37.869Z,17.40
2023-05-01T07:33:06.606Z,17.70
2023-05-01T07:35:34.673Z,18.00
2023-05-01T07:38:02.702Z,18.30
2023-05-01T07:40:31.012Z,18.20
2023-05-01T07:43:00.457Z,18.00
2023-05-01T07:45:28.509Z,17.80
2023-05-01T07:47:57.065Z,17.90
2023-05-01T07:50:25.956Z,18.10
2023-05-01T07:52:53.994Z,18.00
2023-05-01T07:55:23.363Z,18.10
2023-05-01T07:57:51.641Z,18.50
2023-05-01T08:00:21.396Z,18.60
2023-05-01T08:02:49.479Z,18.50
2023-05-01T08:05:17.579Z,18.70
2023-05-01T08:07:46.057Z,18.70
2023-05-01T08:10:15.006Z,18.40
2023-05-01T08:12:43.070Z,18.00
2023-05-01T08:15:11.385Z,18.20
2023-05-01T08:17:43.472Z,18.30
2023-05-01T08:20:13.220Z,18.30
2023-05-01T08:22:41.247Z,18.80
2023-05-01T08:25:09.553Z,19.50
2023-05-01T08:27:37.587Z,19.70
2023-05-01T08:30:07.045Z,20.30
2023-05-01T08:32:35.376Z,20.70
2023-05-01T08:35:05.454Z,20.80
2023-05-01T08:37:33.525Z,20.70
2023-05-01T08:40:04.789Z,20.60
2023-05-01T08:42:33.215Z,20.40
2023-05-01T08:45:04.535Z,20.10
2023-05-01T08:47:32.970Z,19.90
2023-05-01T08:50:10.029Z,20.10
2023-05-01T08:52:41.495Z,20.50
2023-05-01T08:55:12.877Z,20.70
2023-05-01T08:57:46.701Z,21.10
2023-05-01T09:00:19.566Z,21.60
2023-05-01T09:02:49.461Z,21.90
2023-05-01T09:05:20.279Z,21.60
2023-05-01T09:07:48.855Z,22.10
2023-05-01T09:10:19.144Z,21.40
2023-05-01T09:12:54.059Z,21.40
2023-05-01T09:15:22.846Z,21.20
2023-05-01T09:17:51.566Z,21.40
2023-05-01T09:20:21.963Z,21.70
2023-05-01T09:22:51.225Z,21.70
2023-05-01T09:25:19.484Z,21.60
2023-05-01T09:27:47.792Z,21.40
2023-05-01T09:30:31.546Z,21.80
2023-05-01T09:33:09.665Z,21.70
2023-05-01T09:35:52.890Z,22.00
2023-05-01T09:38:29.062Z,22.20
2023-05-01T09:41:06.903Z,22.20
2023-05-01T09:43:35.254Z,21.80
2023-05-01T09:46:08.262Z,22.00
2023-05-01T09:48:37.378Z,22.50
2023-05-01T09:51:26.888Z,23.00
2023-05-01T09:53:57.262Z,22.70
2023-05-01T09:56:28.593Z,22.20
2023-05-01T09:58:58.482Z,21.90
2023-05-01T10:01:42.933Z,22.00
2023-05-01T10:04:11.802Z,21.80
2023-05-01T10:06:42.138Z,22.10
2023-05-01T10:09:16.859Z,22.30
2023-05-01T10:11:52.362Z,22.00
2023-05-01T10:14:21.858Z,21.80
2023-05-01T10:16:52.738Z,21.90
2023-05-01T10:19:24.423Z,21.80
2023-05-01T10:21:55.308Z,22.10
2023-05-01T10:24:23.643Z,21.90
2023-05-01T10:26:52.328Z,22.10
2023-05-01T10:29:23.722Z,22.40
2023-05-01T10:31:51.971Z,22.50
2023-05-01T10:34:23.165Z,22.20
2023-05-01T10:36:58.721Z,22.20
2023-05-01T10:39:33.231Z,22.10
2023-05-01T10:42:11.048Z,22.30
2023-05-01T10:44:39.376Z,22.60
2023-05-01T10:47:42.922Z,22.60
2023-05-01T10:50:12.485Z,22.80
2023-05-01T10:53:18.964Z,22.60
2023-05-01T10:55:48.404Z,23.10
2023-05-01T10:58:56.072Z,23.10
2023-05-01T11:01:33.547Z,23.30
2023-05-01T11:04:10.352Z,23.10
2023-05-01T11:06:38.784Z,22.80
2023-05-01T11:09:42.167Z,22.90
2023-05-01T11:12:12.158Z,23.00
2023-05-01T11:15:05.658Z,23.00
2023-05-01T11:17:50.998Z,23.10
2023-05-01T11:20:51.707Z,23.50
2023-05-01T11:23:23.758Z,23.40
2023-05-01T11:26:04.697Z,23.00
2023-05-01T11:28:33.257Z,22.90
2023-05-01T11:31:03.767Z,23.10
2023-05-01T11:33:34.361Z,23.10
2023-05-01T11:36:04.898Z,23.10
2023-05-01T11:38:32.997Z,23.00
2023-05-01T11:41:04.908Z,23.20
2023-05-01T11:43:33.196Z,23.20
2023-05-01T11:46:04.336Z,23.20
2023-05-01T11:48:34.051Z,23.10
2023-05-01T11:51:02.123Z,23.30
2023-05-01T11:53:30.623Z,23.50
2023-05-01T11:55:59.423Z,23.70
2023-05-01T11:58:36.233Z,23.60
2023-05-01T12:01:04.557Z,23.60
2023-05-01T12:03:43.902Z,23.50
2023-05-01T12:06:13.838Z,23.60
2023-05-01T12:08:50.384Z,23.60
2023-05-01T12:11:20.578Z,23.50
2023-05-01T12:13:50.216Z,23.20
2023-05-01T12:16:18.550Z,23.00
2023-05-01T12:18:48.321Z,23.10
2023-05-01T12:21:18.213Z,23.10
2023-05-01T12:23:46.246Z,23.00
2023-05-01T12:26:19.185Z,23.00
2023-05-01T12:29:03.456Z,23.10
2023-05-01T12:31:32.018Z,22.90
2023-05-01T12:34:03.355Z,22.80
2023-05-01T12:36:33.173Z,22.80
2023-05-01T12:39:03.113Z,22.70
2023-05-01T12:41:36.731Z,22.80
2023-05-01T12:44:15.971Z,22.80
2023-05-01T12:46:44.404Z,22.60
2023-05-01T12:49:19.568Z,22.70
2023-05-01T12:51:49.100Z,22.70
2023-05-01T12:54:22.053Z,22.80
2023-05-01T12:56:50.461Z,22.70
2023-05-01T12:59:23.242Z,22.60
2023-05-01T13:01:59.015Z,22.30
2023-05-01T13:04:28.990Z,21.90
2023-05-01T13:06:58.209Z,21.80
2023-05-01T13:09:31.809Z,21.90
2023-05-01T13:12:01.833Z,22.00
2023-05-01T13:14:31.635Z,22.20
2023-05-01T13:17:01.694Z,21.90
2023-05-01T13:19:31.536Z,21.90
2023-05-01T13:21:59.761Z,21.90
2023-05-01T13:24:37.728Z,21.90
2023-05-01T13:27:06.387Z,21.70
2023-05-01T13:29:34.625Z,21.70
2023-05-01T13:32:04.600Z,21.60
2023-05-01T13:34:35.298Z,21.50
2023-05-01T13:37:03.729Z,21.50
2023-05-01T13:39:31.782Z,21.60
2023-05-01T13:41:59.759Z,21.60
2023-05-01T13:44:29.106Z,21.50
2023-05-01T13:46:58.202Z,21.50
2023-05-01T13:49:26.290Z,21.40
2023-05-01T13:51:55.995Z,21.40
2023-05-01T13:54:24.687Z,21.30
2023-05-01T13:56:53.077Z,21.40
2023-05-01T13:59:21.498Z,21.40
2023-05-01T14:01:49.578Z,21.30
2023-05-01T14:04:21.136Z,21.40
2023-05-01T14:06:49.807Z,21.30
2023-05-01T14:09:19.842Z,21.30
2023-05-01T14:11:49.092Z,21.30
2023-05-01T14:14:18.120Z,21.30
2023-05-01T14:16:49.514Z,21.10
2023-05-01T14:19:18.539Z,21.10
2023-05-01T14:21:47.746Z,21.10
2023-05-01T14:24:18.810Z,20.90
2023-05-01T14:26:50.322Z,21.00
2023-05-01T14:29:29.934Z,20.90
2023-05-01T14:32:03.901Z,20.90
2023-05-01T14:34:31.953Z,20.90
2023-05-01T14:37:02.136Z,20.90
2023-05-01T14:39:34.001Z,20.90
2023-05-01T14:42:03.452Z,20.90
2023-05-01T14:44:31.429Z,20.90
2023-05-01T14:47:00.336Z,20.80
2023-05-01T14:49:28.632Z,20.80
2023-05-01T14:51:56.620Z,20.70
2023-05-01T14:54:24.611Z,20.70
2023-05-01T14:56:52.632Z,20.60
2023-05-01T14:59:22.820Z,20.50
2023-05-01T15:01:50.876Z,20.50
2023-05-01T15:04:19.698Z,20.50
2023-05-01T15:06:47.946Z,20.50
2023-05-01T15:09:16.141Z,20.50
2023-05-01T15:11:44.259Z,20.50
2023-05-01T15:14:12.314Z,20.40
2023-05-01T15:16:42.002Z,20.30
2023-05-01T15:19:10.016Z,20.30
2023-05-01T15:21:38.035Z,20.40
2023-05-01T15:24:06.093Z,20.40
2023-05-01T15:26:34.084Z,20.30
2023-05-01T15:29:02.092Z,20.10
2023-05-01T15:31:30.652Z,20.10
2023-05-01T15:34:00.007Z,20.10
2023-05-01T15:36:28.157Z,20.10
2023-05-01T15:38:56.161Z,19.90
2023-05-01T15:41:24.239Z,20.00
2023-05-01T15:43:52.186Z,20.00
2023-05-01T15:46:22.532Z,20.00
2023-05-01T15:48:50.610Z,19.80
2023-05-01T15:51:20.008Z,19.80
2023-05-01T15:53:48.019Z,19.80
2023-05-01T15:56:15.979Z,19.80
2023-05-01T15:58:44.034Z,19.80
2023-05-01T16:01:13.579Z,19.70
2023-05-01T16:03:46.090Z,19.60
2023-05-01T16:06:16.308Z,19.60
2023-05-01T16:08:45.659Z,19.60
2023-05-01T16:11:13.707Z,19.50
2023-05-01T16:13:42.742Z,19.40
2023-05-01T16:16:11.530Z,19.30
2023-05-01T16:18:42.818Z,19.30
2023-05-01T16:21:12.456Z,19.30
2023-05-01T16:23:40.866Z,19.30
2023-05-01T16:26:11.119Z,19.20
2023-05-01T16:28:39.261Z,19.20
2023-05-01T16:31:23.528Z,19.20
2023-05-01T16:33:54.852Z,19.20
2023-05-01T16:36:22.938Z,19.10
2023-05-01T16:38:50.921Z,19.10
2023-05-01T16:41:20.287Z,19.10
2023-05-01T16:43:48.259Z,19.00
2023-05-01T16:46:17.589Z,19.00
2023-05-01T16:48:45.637Z,18.90
2023-05-01T16:51:13.668Z,18.90
2023-05-01T16:53:41.657Z,18.90
2023-05-01T16:56:10.896Z,18.80
2023-05-01T16:58:40.293Z,18.80
2023-05-01T17:01:08.547Z,18.70
2023-05-01T17:03:37.781Z,18.70
2023-05-01T17:06:08.726Z,18.60
2023-05-01T17:08:36.710Z,18.60
2023-05-01T17:11:06.882Z,18.50
2023-05-01T17:13:34.882Z,18.50
2023-05-01T17:16:04.691Z,18.40
2023-05-01T17:18:32.766Z,18.30
2023-05-01T17:21:00.740Z,18.30
2023-05-01T17:23:29.066Z,18.20
2023-05-01T17:25:57.201Z,18.20
2023-05-01T17:28:28.474Z,18.10
2023-05-01T17:30:56.460Z,18.00
2023-05-01T17:33:26.181Z,18.00
2023-05-01T17:35:56.630Z,17.90
2023-05-01T17:38:24.748Z,17.80
2023-05-01T17:40:52.753Z,17.70
2023-05-01T17:43:22.582Z,17.70
2023-05-01T17:45:50.744Z,17.60
2023-05-01T17:48:21.946Z,17.60
2023-05-01T17:50:51.588Z,17.40
2023-05-01T17:53:19.559Z,17.40
2023-05-01T17:55:47.529Z,17.30
2023-05-01T17:58:15.534Z,17.20
2023-05-01T18:00:43.808Z,17.10
2023-05-01T18:03:11.891Z,17.10
2023-05-01T18:05:40.407Z,17.00
2023-05-01T18:08:09.822Z,17.00
2023-05-01T18:10:37.833Z,16.90
2023-05-01T18:13:05.982Z,16.80
2023-05-01T18:15:33.980Z,16.80
2023-05-01T18:18:07.282Z,16.70
2023-05-01T18:20:35.346Z,16.60
2023-05-01T18:23:03.798Z,16.50
2023-05-01T18:25:33.172Z,16.50
2023-05-01T18:28:01.509Z,16.40
2023-05-01T18:30:29.535Z,16.30
2023-05-01T18:32:57.606Z,16.30
2023-05-01T18:35:25.810Z,16.20
2023-05-01T18:37:53.851Z,16.20
2023-05-01T18:40:22.287Z,16.10
2023-05-01T18:42:51.961Z,16.10
2023-05-01T18:45:22.342Z,16.00
2023-05-01T18:47:50.544Z,16.00
2023-05-01T18:50:21.866Z,15.90
2023-05-01T18:52:50.092Z,15.80
2023-05-01T18:55:18.495Z,15.80
2023-05-01T18:57:48.367Z,15.70
2023-05-01T19:00:20.246Z,15.70
2023-05-01T19:02:51.676Z,15.60
2023-05-01T19:05:21.168Z,15.60
2023-05-01T19:07:49.379Z,15.60
2023-05-01T19:10:18.078Z,15.40
2023-05-01T19:12:48.498Z,15.40
2023-05-01T19:15:18.056Z,15.40
2023-05-01T19:17:46.082Z,15.30
2023-05-01T19:20:14.161Z,15.30
2023-05-01T19:22:43.842Z,15.20
2023-05-01T19:25:11.944Z,15.20
2023-05-01T19:27:39.959Z,15.10
2023-05-01T19:30:09.101Z,15.00
2023-05-01T19:32:38.763Z,15.00
2023-05-01T19:35:11.515Z,15.00
2023-05-01T19:37:39.775Z,14.90
2023-05-01T19:40:09.508Z,14.80
2023-05-01T19:42:37.623Z,14.80
2023-05-01T19:45:06.838Z,14.70
2023-05-01T19:47:35.089Z,14.70
2023-05-01T19:50:04.646Z,14.70
2023-05-01T19:52:32.648Z,14.60
2023-05-01T19:55:04.223Z,14.60
2023-05-01T19:57:33.604Z,14.60
2023-05-01T20:00:01.790Z,14.50
2023-05-01T20:02:30.280Z,14.50
2023-05-01T20:04:58.631Z,14.50
2023-05-01T20:07:30.612Z,14.40
2023-05-01T20:09:58.762Z,14.40
2023-05-01T20:12:28.568Z,14.30
2023-05-01T20:14:56.825Z,14.30
2023-05-01T20:17:27.174Z,14.20
2023-05-01T20:19:55.222Z,14.20
2023-05-01T20:22:26.148Z,14.20
2023-05-01T20:24:55.555Z,14.10
2023-05-01T20:27:24.044Z,14.10
2023-05-01T20:29:52.022Z,14.10
2023-05-01T20:32:20.016Z,14.00
2023-05-01T20:34:48.158Z,14.00
2023-05-01T20:37:16.478Z,14.00
2023-05-01T20:39:44.477Z,13.90
2023-05-01T20:42:14.088Z,13.90
2023-05-01T20:44:44.530Z,13.80
2023-05-01T20:47:13.807Z,13.80
2023-05-01T20:49:41.818Z,13.80
2023-05-01T20:52:09.844Z,13.70
2023-05-01T20:54:37.840Z,13.70
2023-05-01T20:57:05.827Z,13.70
2023-05-01T20:59:36.488Z,13.70
2023-05-01T21:02:05.313Z,13.60
2023-05-01T21:04:33.422Z,13.60
2023-05-01T21:07:03.512Z,13.60
2023-05-01T21:09:31.923Z,13.50
2023-05-01T21:11:59.959Z,13.50
2023-05-01T21:14:28.873Z,13.40
2023-05-01T21:16:58.545Z,13.40
2023-05-01T21:19:26.742Z,13.40
2023-05-01T21:21:55.403Z,13.40
2023-05-01T21:24:27.441Z,13.30
2023-05-01T21:26:55.716Z,13.30
2023-05-01T21:29:23.702Z,13.30
2023-05-01T21:31:51.748Z,13.30
2023-05-01T21:34:21.174Z,13.20
2023-05-01T21:36:49.517Z,13.20
2023-05-01T21:39:17.809Z,13.20
2023-05-01T21:41:49.303Z,13.20
2023-05-01T21:44:17.634Z,13.10
2023-05-01T21:46:45.877Z,13.10
2023-05-01T21:49:16.882Z,13.10
2023-05-01T21:51:46.257Z,13.10
2023-05-01T21:54:14.581Z,13.00
2023-05-01T21:56:42.898Z,13.00
2023-05-01T21:59:12.601Z,13.00
2023-05-01T22:01:41.083Z,13.00
2023-05-01T22:04:09.372Z,13.00
2023-05-01T22:06:37.548Z,12.90
2023-05-01T22:09:07.564Z,12.90
2023-05-01T22:11:35.519Z,12.90
2023-05-01T22:14:03.566Z,12.90
2023-05-01T22:16:31.639Z,12.80
2023-05-01T22:19:00.406Z,12.80
2023-05-01T22:21:30.680Z,12.70
2023-05-01T22:23:58.723Z,12.70
2023-05-01T22:26:28.075Z,12.70
2023-05-01T22:28:56.081Z,12.70
2023-05-01T22:31:24.298Z,12.60
2023-05-01T22:33:53.245Z,12.60
2023-05-01T22:36:21.272Z,12.50
2023-05-01T22:38:49.220Z,12.50
2023-05-01T22:41:17.210Z,12.40
2023-05-01T22:43:46.605Z,12.40
2023-05-01T22:46:14.620Z,12.30
2023-05-01T22:48:42.588Z,12.30
2023-05-01T22:51:10.661Z,12.30
2023-05-01T22:53:39.037Z,12.20
2023-05-01T22:56:07.792Z,12.20
2023-05-01T22:58:35.827Z,12.10
2023-05-01T23:01:08.324Z,12.20
2023-05-01T23:03:38.669Z,12.10
2023-05-01T23:06:07.421Z,12.10
2023-05-01T23:08:35.626Z,12.00
2023-05-01T23:11:04.329Z,12.00
2023-05-01T23:13:32.686Z,12.00
2023-05-01T23:16:00.740Z,11.90
2023-05-01T23:18:33.885Z,11.90
2023-05-01T23:21:01.826Z,11.90
2023-05-01T23:23:31.646Z,11.80
2023-05-01T23:26:00.805Z,11.80
2023-05-01T23:28:29.722Z,11.80
2023-05-01T23:30:58.842Z,11.70
2023-05-01T23:33:28.229Z,11.70
2023-05-01T23:35:57.592Z,11.60
2023-05-01T23:38:25.791Z,11.60
2023-05-01T23:40:53.911Z,11.50
2023-05-01T23:43:24.993Z,11.50
2023-05-01T23:45:53.030Z,11.50
2023-05-01T23:48:21.260Z,11.50
2023-05-01T23:50:49.267Z,11.40
2023-05-01T23:53:18.919Z,11.40
2023-05-01T23:55:47.115Z,11.40
2023-05-01T23:58:16.826Z,11.40
